X  Fermer Données météorologiques d'aviation de Metar     LYNI Nis Airport
Température
37°C Température
18°C Point de rosée
33% Humidité



Vent
9 MPH
14 KM/H
4 M/S
8 KTS



310°
NO
Conditions actuelles

Clair Clair
Pression 1013.88 (hPa) - 29.94 (inHg)
Visibilité 6 (mile) - 9.7 (km)
Aéroport
Code de l'aéroport LYNI

Emplacement: Nis Airport
Distance: 63 (mi)

Metar:
LYNI 191200Z 31008KT 260V350 CAVOK 37/18 Q1014 NOSIG

Temps: 19-07-2024 14:00 CEST